createdAt,value
2024-03-06T00:02:23.609Z,2.45
2024-03-06T00:04:50.639Z,2.40
2024-03-06T00:07:17.538Z,2.20
2024-03-06T00:09:44.433Z,2.63
2024-03-06T00:12:11.173Z,3.03
2024-03-06T00:14:38.209Z,3.20
2024-03-06T00:17:08.724Z,2.25
2024-03-06T00:19:35.929Z,3.17
2024-03-06T00:22:03.803Z,3.05
2024-03-06T00:24:30.850Z,2.92
2024-03-06T00:26:57.776Z,2.42
2024-03-06T00:29:24.590Z,1.80
2024-03-06T00:31:51.827Z,3.08
2024-03-06T00:36:45.316Z,2.88
2024-03-06T00:39:12.349Z,2.38
2024-03-06T00:41:39.108Z,2.58
2024-03-06T00:44:07.071Z,3.35
2024-03-06T00:46:33.936Z,3.17
2024-03-06T00:49:00.715Z,3.03
2024-03-06T00:51:36.942Z,2.83
2024-03-06T00:54:08.782Z,3.75
2024-03-06T00:56:41.060Z,2.90
2024-03-06T00:59:08.021Z,3.53
2024-03-06T01:01:35.103Z,2.50
2024-03-06T01:04:01.930Z,2.97
2024-03-06T01:06:28.713Z,3.13
2024-03-06T01:08:55.908Z,2.60
2024-03-06T01:11:22.791Z,2.88
2024-03-06T01:13:50.453Z,2.95
2024-03-06T01:16:17.318Z,2.80
2024-03-06T01:18:44.146Z,2.05
2024-03-06T01:21:11.238Z,2.85
2024-03-06T01:23:38.194Z,2.53
2024-03-06T01:26:05.164Z,2.45
2024-03-06T01:28:32.273Z,3.35
2024-03-06T01:31:00.198Z,3.20
2024-03-06T01:33:27.837Z,2.70
2024-03-06T01:35:54.796Z,2.97
2024-03-06T01:38:21.545Z,2.00
2024-03-06T01:40:48.285Z,3.08
2024-03-06T01:43:23.585Z,3.15
2024-03-06T01:45:50.952Z,2.88
2024-03-06T01:50:45.845Z,2.38
2024-03-06T01:53:14.463Z,2.95
2024-03-06T01:55:41.828Z,2.47
2024-03-06T02:00:36.975Z,3.22
2024-03-06T02:03:03.794Z,3.58
2024-03-06T02:05:32.292Z,3.00
2024-03-06T02:08:00.609Z,2.80
2024-03-06T02:10:28.751Z,2.55
2024-03-06T02:12:56.334Z,4.35
2024-03-06T02:15:23.522Z,3.25
2024-03-06T02:17:50.749Z,2.88
2024-03-06T02:20:17.658Z,3.55
2024-03-06T02:22:44.544Z,3.65
2024-03-06T02:25:12.974Z,2.20
2024-03-06T02:27:39.678Z,3.25
2024-03-06T02:30:07.394Z,2.33
2024-03-06T02:32:34.204Z,2.72
2024-03-06T02:35:03.865Z,2.85
2024-03-06T02:37:30.735Z,5.32
2024-03-06T02:39:57.552Z,3.45
2024-03-06T02:42:24.245Z,3.65
2024-03-06T02:44:50.915Z,4.57
2024-03-06T02:47:17.646Z,2.83
2024-03-06T02:49:44.759Z,3.08
2024-03-06T02:52:11.566Z,3.83
2024-03-06T02:54:38.244Z,3.60
2024-03-06T02:57:04.953Z,3.30
2024-03-06T02:59:31.609Z,3.53
2024-03-06T03:01:58.344Z,4.43
2024-03-06T03:04:25.055Z,4.43
2024-03-06T03:06:52.192Z,3.95
2024-03-06T03:09:18.989Z,3.78
2024-03-06T03:11:45.738Z,2.85
2024-03-06T03:14:13.147Z,3.90
2024-03-06T03:16:39.965Z,4.53
2024-03-06T03:19:06.698Z,5.20
2024-03-06T03:21:33.577Z,5.53
2024-03-06T03:24:00.397Z,5.70
2024-03-06T03:26:27.171Z,6.63
2024-03-06T03:28:53.924Z,7.03
2024-03-06T03:31:20.682Z,6.93
2024-03-06T03:33:47.442Z,5.07
2024-03-06T03:36:14.138Z,5.50
2024-03-06T03:38:43.846Z,6.15
2024-03-06T03:41:14.869Z,5.53
2024-03-06T03:43:42.129Z,5.55
2024-03-06T03:46:10.213Z,6.10
2024-03-06T03:48:38.490Z,5.65
2024-03-06T03:51:06.824Z,5.05
2024-03-06T03:53:34.698Z,5.95
2024-03-06T03:56:02.497Z,3.95
2024-03-06T03:58:29.286Z,4.43
2024-03-06T04:00:57.089Z,4.78
2024-03-06T04:03:25.290Z,5.63
2024-03-06T04:05:52.841Z,4.95
2024-03-06T04:08:19.716Z,6.15
2024-03-06T04:10:46.656Z,4.63
2024-03-06T04:13:14.189Z,6.38
2024-03-06T04:15:41.116Z,5.78
2024-03-06T04:18:08.043Z,6.00
2024-03-06T04:20:35.328Z,3.83
2024-03-06T04:23:02.225Z,3.88
2024-03-06T04:25:29.095Z,5.43
2024-03-06T04:27:56.044Z,5.03
2024-03-06T04:30:22.756Z,6.03
2024-03-06T04:32:49.562Z,5.05
2024-03-06T04:35:17.228Z,5.90
2024-03-06T04:37:45.592Z,7.35
2024-03-06T04:40:13.045Z,7.05
2024-03-06T04:42:39.827Z,5.43
2024-03-06T04:45:17.224Z,6.57
2024-03-06T04:47:44.554Z,6.15
2024-03-06T04:50:12.439Z,7.68
2024-03-06T04:52:39.754Z,6.38
2024-03-06T04:55:07.792Z,6.35
2024-03-06T04:57:35.880Z,5.35
2024-03-06T05:00:07.166Z,6.22
2024-03-06T06:00:12.768Z,3.85
2024-03-06T06:02:39.590Z,3.92
2024-03-06T06:05:22.022Z,5.60
2024-03-06T06:07:51.285Z,4.20
2024-03-06T06:10:21.287Z,5.65
2024-03-06T06:12:49.665Z,4.53
2024-03-06T06:17:46.249Z,4.70
2024-03-06T06:20:17.051Z,4.78
2024-03-06T06:22:44.832Z,4.82
2024-03-06T06:25:11.960Z,5.03
2024-03-06T06:27:39.779Z,4.72
2024-03-06T06:30:08.374Z,4.35
2024-03-06T06:32:37.184Z,3.90
2024-03-06T06:37:31.313Z,4.95
2024-03-06T06:39:58.001Z,5.47
2024-03-06T06:42:26.015Z,4.95
2024-03-06T06:44:52.681Z,4.22
2024-03-06T06:47:19.466Z,4.13
2024-03-06T06:49:46.184Z,7.18
2024-03-06T06:52:12.975Z,4.53
2024-03-06T06:54:39.768Z,6.07
2024-03-06T06:57:06.499Z,5.05
2024-03-06T06:59:33.341Z,4.07
2024-03-06T07:02:00.195Z,5.35
2024-03-06T07:04:27.004Z,3.30
2024-03-06T07:06:53.673Z,5.22
2024-03-06T07:09:20.956Z,5.10
2024-03-06T07:11:48.033Z,6.43
2024-03-06T07:14:15.181Z,3.85
2024-03-06T07:16:45.635Z,4.28
2024-03-06T07:19:12.649Z,5.05
2024-03-06T07:21:39.496Z,3.83
2024-03-06T07:24:06.755Z,4.97
2024-03-06T07:26:35.119Z,5.35
2024-03-06T07:29:02.544Z,5.72
2024-03-06T07:31:29.546Z,5.63
2024-03-06T07:33:56.651Z,5.72
2024-03-06T07:36:23.469Z,5.30
2024-03-06T07:38:50.325Z,5.63
2024-03-06T07:41:17.244Z,5.63
2024-03-06T07:43:44.245Z,5.50
2024-03-06T07:46:11.722Z,4.10
2024-03-06T07:48:39.825Z,6.03
2024-03-06T07:51:06.822Z,4.97
2024-03-06T07:53:33.653Z,6.10
2024-03-06T07:56:00.521Z,5.25
2024-03-06T07:58:27.280Z,6.63
2024-03-06T08:00:57.760Z,5.15
2024-03-06T08:03:25.889Z,6.97
2024-03-06T08:05:56.492Z,6.70
2024-03-06T08:08:23.580Z,6.97
2024-03-06T08:10:50.620Z,5.47
2024-03-06T08:13:17.735Z,5.50
2024-03-06T08:15:46.221Z,4.82
2024-03-06T08:18:14.592Z,5.25
2024-03-06T08:20:42.353Z,5.93
2024-03-06T08:23:11.177Z,6.80
2024-03-06T08:25:38.929Z,5.57
2024-03-06T08:28:06.831Z,5.63
2024-03-06T08:30:34.282Z,5.60
2024-03-06T08:33:02.015Z,5.13
2024-03-06T08:35:29.132Z,4.22
2024-03-06T08:37:55.947Z,6.50
2024-03-06T08:40:24.516Z,6.13
2024-03-06T08:42:51.520Z,4.55
2024-03-06T08:45:19.179Z,6.85
2024-03-06T08:47:46.906Z,6.80
2024-03-06T08:50:14.531Z,5.28
2024-03-06T08:52:42.559Z,6.78
2024-03-06T08:55:10.131Z,6.90
2024-03-06T09:00:05.743Z,6.10
2024-03-06T09:02:32.557Z,5.65
2024-03-06T09:04:59.423Z,6.93
2024-03-06T09:07:26.171Z,6.07
2024-03-06T09:09:53.906Z,7.43
2024-03-06T09:12:20.921Z,5.47
2024-03-06T09:14:47.717Z,6.70
2024-03-06T09:17:15.811Z,6.88
2024-03-06T09:19:55.041Z,5.97
2024-03-06T09:22:29.862Z,6.03
2024-03-06T09:24:57.804Z,5.45
2024-03-06T09:27:24.580Z,5.82
2024-03-06T09:29:51.356Z,7.07
2024-03-06T09:32:20.160Z,6.65
2024-03-06T09:34:47.234Z,4.80
2024-03-06T09:37:13.985Z,5.70
2024-03-06T09:39:40.758Z,6.00
2024-03-06T09:42:08.721Z,6.35
2024-03-06T09:44:35.809Z,5.15
2024-03-06T09:47:05.316Z,4.65
2024-03-06T09:49:32.414Z,5.60
2024-03-06T09:52:00.129Z,6.88
2024-03-06T09:54:29.791Z,5.25
2024-03-06T09:56:58.530Z,7.60
2024-03-06T09:59:25.286Z,5.63
2024-03-06T10:01:57.441Z,5.97
2024-03-06T10:04:28.751Z,5.35
2024-03-06T10:06:59.659Z,5.38
2024-03-06T10:09:28.142Z,4.20
2024-03-06T10:11:57.409Z,6.00
2024-03-06T10:14:24.834Z,7.10
2024-03-06T10:19:23.350Z,4.63
2024-03-06T10:21:52.201Z,5.35
2024-03-06T10:24:26.936Z,4.05
2024-03-06T10:26:55.931Z,4.93
2024-03-06T10:29:23.803Z,4.28
2024-03-06T10:31:58.588Z,4.95
2024-03-06T10:34:26.985Z,5.40
2024-03-06T10:36:57.340Z,3.95
2024-03-06T10:39:25.410Z,4.43
2024-03-06T10:41:57.956Z,7.47
2024-03-06T10:44:27.112Z,6.90
2024-03-06T10:47:01.426Z,5.15
2024-03-06T10:49:29.462Z,4.32
2024-03-06T10:52:00.547Z,4.97
2024-03-06T10:54:33.381Z,3.78
2024-03-06T10:57:00.359Z,4.93
2024-03-06T10:59:29.011Z,5.05
2024-03-06T11:02:02.152Z,5.25
2024-03-06T11:04:35.266Z,5.15
2024-03-06T11:07:03.947Z,5.18
2024-03-06T11:09:39.165Z,5.43
2024-03-06T11:12:09.762Z,5.70
2024-03-06T11:14:41.304Z,6.13
2024-03-06T11:17:11.959Z,5.05
2024-03-06T11:20:00.886Z,5.20
2024-03-06T11:23:13.176Z,6.22
2024-03-06T11:25:48.893Z,5.03
2024-03-06T11:28:20.783Z,3.58
2024-03-06T11:30:50.175Z,4.63
2024-03-06T11:33:20.281Z,5.40
2024-03-06T11:36:22.442Z,4.72
2024-03-06T11:38:54.048Z,3.72
2024-03-06T11:41:25.424Z,4.40
2024-03-06T11:43:54.342Z,4.82
2024-03-06T11:46:22.507Z,4.43
2024-03-06T11:48:56.416Z,4.72
2024-03-06T11:51:24.463Z,4.10
2024-03-06T11:53:52.635Z,4.15
2024-03-06T11:56:20.782Z,4.13
2024-03-06T11:58:50.128Z,5.18
2024-03-06T12:01:19.968Z,4.53
2024-03-06T12:03:48.713Z,4.85
2024-03-06T12:06:18.211Z,4.00
2024-03-06T12:08:45.148Z,3.45
2024-03-06T12:11:12.092Z,3.53
2024-03-06T12:13:38.902Z,4.63
2024-03-06T12:16:07.829Z,4.40
2024-03-06T12:18:35.333Z,5.25
2024-03-06T12:21:04.245Z,4.55
2024-03-06T12:23:31.497Z,3.53
2024-03-06T12:28:59.375Z,4.75
2024-03-06T12:31:26.214Z,3.83
2024-03-06T12:34:01.159Z,5.05
2024-03-06T12:36:31.171Z,4.93
2024-03-06T12:39:01.355Z,3.78
2024-03-06T12:41:29.098Z,4.75
2024-03-06T12:43:57.043Z,3.58
2024-03-06T12:46:25.096Z,4.05
2024-03-06T12:48:52.445Z,4.07
2024-03-06T12:51:19.365Z,4.15
2024-03-06T12:53:46.338Z,3.88
2024-03-06T12:56:13.291Z,4.13
2024-03-06T12:58:40.139Z,4.75
2024-03-06T13:01:07.026Z,3.78
2024-03-06T13:03:33.847Z,4.13
2024-03-06T13:06:00.966Z,3.65
2024-03-06T13:08:27.924Z,4.57
2024-03-06T13:10:55.230Z,4.18
2024-03-06T13:13:22.026Z,4.03
2024-03-06T13:15:49.812Z,5.22
2024-03-06T13:18:17.378Z,4.50
2024-03-06T13:20:45.293Z,4.40
2024-03-06T13:23:13.227Z,3.63
2024-03-06T13:25:40.168Z,3.97
2024-03-06T13:28:07.344Z,4.07
2024-03-06T13:33:00.969Z,3.90
2024-03-06T13:35:27.984Z,4.20
2024-03-06T13:37:55.226Z,3.65
2024-03-06T13:42:49.084Z,3.78
2024-03-06T13:45:16.061Z,3.67
2024-03-06T13:47:44.004Z,4.10
2024-03-06T13:50:12.816Z,3.90
2024-03-06T13:52:40.276Z,4.00
2024-03-06T13:55:08.075Z,2.90
2024-03-06T13:57:36.237Z,4.45
2024-03-06T14:00:13.505Z,3.90
2024-03-06T14:02:41.169Z,4.32
2024-03-06T14:05:08.676Z,3.83
2024-03-06T14:07:36.206Z,3.70
2024-03-06T14:10:06.088Z,4.85
2024-03-06T14:12:33.316Z,4.70
2024-03-06T14:15:00.006Z,3.22
2024-03-06T14:17:26.888Z,3.80
2024-03-06T14:19:53.679Z,3.78
2024-03-06T14:22:20.448Z,3.58
2024-03-06T14:24:47.192Z,3.63
2024-03-06T14:27:17.258Z,4.40
2024-03-06T14:29:44.513Z,3.80
2024-03-06T14:32:11.407Z,4.60
2024-03-06T14:34:38.230Z,3.80
2024-03-06T14:37:05.107Z,3.78
2024-03-06T14:39:31.850Z,3.45
2024-03-06T14:41:58.668Z,3.30
2024-03-06T14:44:25.426Z,3.20
2024-03-06T14:46:52.414Z,3.10
2024-03-06T14:49:19.200Z,3.30
2024-03-06T14:51:46.177Z,3.20
2024-03-06T14:54:12.974Z,3.63
2024-03-06T14:56:39.887Z,2.95
2024-03-06T14:59:06.679Z,4.00
2024-03-06T15:01:34.328Z,2.88
2024-03-06T15:04:01.057Z,3.72
2024-03-06T15:06:27.862Z,3.67
2024-03-06T15:08:54.622Z,3.60
2024-03-06T15:11:24.430Z,3.15
2024-03-06T15:13:51.782Z,4.40
2024-03-06T15:16:19.608Z,3.28
2024-03-06T15:18:46.415Z,3.33
2024-03-06T15:21:13.179Z,4.05
2024-03-06T15:23:40.249Z,3.70
2024-03-06T15:26:07.040Z,3.53
2024-03-06T15:28:33.812Z,3.78
2024-03-06T15:31:01.385Z,3.38
2024-03-06T15:33:28.275Z,4.43
2024-03-06T15:35:55.064Z,3.92
2024-03-06T15:38:21.936Z,3.65
2024-03-06T15:40:51.669Z,3.75
2024-03-06T15:43:18.764Z,3.28
2024-03-06T15:45:45.684Z,4.13
2024-03-06T15:48:15.163Z,3.20
2024-03-06T15:50:42.820Z,3.65
2024-03-06T15:53:10.033Z,3.05
2024-03-06T15:58:04.719Z,3.88
2024-03-06T16:00:32.403Z,4.22
2024-03-06T16:02:59.595Z,3.42
2024-03-06T16:05:29.535Z,3.88
2024-03-06T16:08:05.357Z,3.72
2024-03-06T16:10:33.026Z,3.63
2024-03-06T16:12:59.733Z,3.75
2024-03-06T16:15:26.822Z,3.30
2024-03-06T16:17:53.788Z,5.03
2024-03-06T16:20:21.577Z,4.40
2024-03-06T16:22:48.456Z,4.43
2024-03-06T16:25:15.261Z,3.60
2024-03-06T16:27:41.985Z,3.08
2024-03-06T16:30:10.066Z,3.42
2024-03-06T16:32:37.042Z,3.72
2024-03-06T16:35:05.373Z,3.08
2024-03-06T16:37:32.243Z,3.13
2024-03-06T16:39:59.014Z,3.75
2024-03-06T16:42:25.761Z,3.58
2024-03-06T16:44:52.492Z,2.90
2024-03-06T16:47:19.294Z,4.07
2024-03-06T16:49:46.051Z,2.88
2024-03-06T16:52:14.615Z,3.25
2024-03-06T16:54:42.278Z,3.53
2024-03-06T16:57:12.099Z,3.45
2024-03-06T16:59:39.386Z,2.40
2024-03-06T17:04:33.555Z,3.42
2024-03-06T17:07:02.461Z,3.35
2024-03-06T17:09:29.423Z,5.50
2024-03-06T17:11:56.269Z,6.68
2024-03-06T17:14:23.217Z,4.25
2024-03-06T17:16:49.914Z,4.32
2024-03-06T17:19:16.644Z,3.45
2024-03-06T17:21:43.383Z,3.63
2024-03-06T17:24:10.092Z,3.47
2024-03-06T17:26:39.650Z,2.72
2024-03-06T17:29:08.399Z,3.03
2024-03-06T17:31:38.514Z,3.28
2024-03-06T17:34:07.299Z,3.00
2024-03-06T17:36:37.388Z,2.92
2024-03-06T17:39:05.615Z,3.78
2024-03-06T17:41:32.329Z,4.05
2024-03-06T17:43:59.020Z,4.93
2024-03-06T17:46:27.145Z,3.97
2024-03-06T17:48:53.816Z,3.13
2024-03-06T17:51:22.915Z,3.55
2024-03-06T17:53:49.692Z,3.70
2024-03-06T17:56:16.524Z,3.63
2024-03-06T17:58:43.221Z,2.80
2024-03-06T18:01:09.916Z,4.00
2024-03-06T18:03:36.630Z,3.45
2024-03-06T18:06:03.373Z,3.20
2024-03-06T18:08:30.490Z,4.00
2024-03-06T18:13:23.893Z,4.10
2024-03-06T18:15:53.222Z,3.80
2024-03-06T18:18:20.467Z,4.13
2024-03-06T18:20:47.276Z,3.47
2024-03-06T18:23:14.047Z,3.80
2024-03-06T18:25:41.302Z,4.05
2024-03-06T18:30:34.658Z,4.30
2024-03-06T18:33:01.818Z,3.50
2024-03-06T18:37:56.376Z,4.40
2024-03-06T18:40:24.789Z,5.22
2024-03-06T18:42:51.476Z,4.75
2024-03-06T18:45:19.393Z,4.32
2024-03-06T18:47:47.503Z,4.03
2024-03-06T18:50:16.681Z,5.00
2024-03-06T18:52:43.690Z,5.45
2024-03-06T18:55:11.631Z,5.35
2024-03-06T18:57:39.512Z,4.15
2024-03-06T19:00:07.681Z,3.63
2024-03-06T19:02:34.528Z,4.55
2024-03-06T19:05:01.257Z,4.53
2024-03-06T19:07:29.528Z,3.65
2024-03-06T19:09:56.892Z,3.83
2024-03-06T19:12:23.679Z,3.55
2024-03-06T19:14:50.518Z,4.13
2024-03-06T19:17:17.492Z,3.92
2024-03-06T19:19:44.262Z,3.70
2024-03-06T19:22:11.091Z,4.25
2024-03-06T19:24:40.986Z,4.53
2024-03-06T19:27:07.664Z,3.63
2024-03-06T19:29:34.438Z,4.25
2024-03-06T19:32:03.926Z,3.58
2024-03-06T19:34:31.833Z,3.95
2024-03-06T19:37:00.813Z,4.60
2024-03-06T19:39:27.546Z,3.80
2024-03-06T19:41:54.552Z,4.18
2024-03-06T19:44:21.649Z,3.30
2024-03-06T19:46:49.346Z,3.63
2024-03-06T19:49:16.019Z,4.03
2024-03-06T19:51:44.048Z,3.05
2024-03-06T19:54:10.721Z,3.58
2024-03-06T19:56:37.464Z,4.22
2024-03-06T19:59:05.257Z,3.53
2024-03-06T20:01:32.154Z,3.58
2024-03-06T20:03:58.926Z,4.20
2024-03-06T20:06:27.963Z,3.72
2024-03-06T20:08:55.207Z,3.95
2024-03-06T20:13:49.127Z,3.78
2024-03-06T20:16:15.784Z,3.42
2024-03-06T20:18:42.587Z,4.05
2024-03-06T20:21:09.916Z,3.25
2024-03-06T20:23:36.675Z,2.90
2024-03-06T20:26:03.479Z,3.40
2024-03-06T20:28:30.151Z,3.22
2024-03-06T20:30:56.856Z,2.80
2024-03-06T20:33:24.680Z,2.38
2024-03-06T20:35:51.572Z,3.13
2024-03-06T20:38:19.862Z,2.70
2024-03-06T20:40:50.929Z,3.17
2024-03-06T20:43:17.668Z,2.70
2024-03-06T20:45:45.154Z,3.67
2024-03-06T20:48:12.137Z,3.42
2024-03-06T20:50:39.871Z,2.60
2024-03-06T20:53:06.682Z,3.65
2024-03-06T20:55:33.383Z,3.45
2024-03-06T20:58:00.046Z,2.30
2024-03-06T21:00:26.723Z,3.38
2024-03-06T21:02:53.488Z,2.80
2024-03-06T21:05:20.207Z,2.55
2024-03-06T21:07:47.101Z,2.40
2024-03-06T21:10:16.741Z,2.80
2024-03-06T21:12:48.536Z,2.33
2024-03-06T21:15:16.503Z,3.17
2024-03-06T21:17:44.220Z,2.38
2024-03-06T21:20:14.440Z,3.00
2024-03-06T21:22:45.892Z,2.25
2024-03-06T21:25:13.639Z,2.95
2024-03-06T21:27:41.066Z,2.33
2024-03-06T21:30:09.609Z,3.50
2024-03-06T21:32:37.521Z,2.08
2024-03-06T21:35:05.324Z,3.47
2024-03-06T21:37:32.978Z,2.80
2024-03-06T21:40:00.366Z,2.40
2024-03-06T21:42:27.379Z,2.85
2024-03-06T21:44:54.282Z,2.58
2024-03-06T21:47:22.460Z,2.15
2024-03-06T21:49:50.448Z,2.75
2024-03-06T21:52:17.975Z,1.95
2024-03-06T21:54:45.083Z,2.03
2024-03-06T21:57:16.565Z,2.08
2024-03-06T21:59:43.576Z,2.40
2024-03-06T22:02:12.174Z,2.60
2024-03-06T22:04:39.276Z,2.72
2024-03-06T22:07:06.010Z,2.35
2024-03-06T22:09:33.248Z,2.35
2024-03-06T22:14:29.121Z,2.72
2024-03-06T22:16:55.891Z,3.33
2024-03-06T22:19:25.934Z,3.13
2024-03-06T22:21:52.703Z,2.55
2024-03-06T22:24:20.108Z,2.38
2024-03-06T22:26:46.916Z,3.05
2024-03-06T22:29:14.868Z,2.30
2024-03-06T22:31:44.696Z,2.08
2024-03-06T22:34:11.484Z,1.98
2024-03-06T22:36:38.984Z,2.35
2024-03-06T22:39:06.049Z,2.42
2024-03-06T22:41:32.811Z,2.97
2024-03-06T22:43:59.529Z,2.22
2024-03-06T22:46:26.353Z,2.50
2024-03-06T22:48:53.917Z,2.00
2024-03-06T22:51:20.778Z,3.00
2024-03-06T22:53:48.989Z,2.22
2024-03-06T22:56:16.142Z,2.10
2024-03-06T22:58:43.010Z,1.77
2024-03-06T23:01:09.734Z,1.85
2024-03-06T23:03:36.488Z,2.05
2024-03-06T23:06:03.740Z,3.08
2024-03-06T23:08:30.537Z,2.92
2024-03-06T23:10:59.541Z,2.17
2024-03-06T23:13:26.683Z,2.75
2024-03-06T23:15:53.880Z,2.13
2024-03-06T23:18:21.435Z,2.33
2024-03-06T23:20:50.179Z,3.97
2024-03-06T23:23:17.132Z,2.95
2024-03-06T23:25:43.945Z,2.78
2024-03-06T23:28:12.082Z,2.60
2024-03-06T23:30:39.011Z,2.83
2024-03-06T23:33:06.727Z,2.05
2024-03-06T23:35:33.695Z,4.13
2024-03-06T23:38:00.487Z,2.03
2024-03-06T23:40:30.482Z,6.13
2024-03-06T23:42:58.329Z,4.03
2024-03-06T23:45:25.340Z,3.63
2024-03-06T23:47:52.690Z,2.60
2024-03-06T23:50:21.466Z,2.35
2024-03-06T23:52:49.265Z,2.83
2024-03-06T23:55:16.741Z,2.25
2024-03-06T23:57:43.464Z,2.13
